San Anselmo, CA

8:48 PM PST on November 22, 2014 (GMT -0800)
San Rafael - CA | Change Station
CLOSE
Current Station
Personal Weather Station
Location: San Rafael, CA
Elevation: 7 ft
Nearby Weather Stations

Elev 7 ft 37.97 °N, 122.52 °W | Updated 11 minutes ago

Clear
Clear
54.3 °F
Feels Like 54.3 °F
N
1.6
Wind Variable Wind from West

Today
High -- | Low -- °F
--% Chance of Precip.
Yesterday
High -- | Low -- °F
Precip. -- in
6:58 AM 4:53 PM
New Moon, 1% visible
Pressure 30.24 in
Visibility 10.0 miles
Clouds Clear
Dew Point 49 °F
Humidity 81%
Rainfall 0.27 in
Snow Depth Not available.
UV 0 out of 12
Pollen .40 out of 12
Air Quality Not available.
Flu Activity Not available.
METAR KO69 230435Z AUTO 31004KT 10SM CLR 12/08 A3024 RMK AO1

More Conditions Fewer Conditions

Pressure 30.24 in
Visibility 10.0 miles
Clouds Clear
Dew Point 49 °F
Humidity 81%
Rainfall 0.27 in
Snow Depth Not available.
UV 0 out of 12
Pollen .40 out of 12
Air Quality Not available.
Flu Activity Not available.
METAR KO69 230435Z AUTO 31004KT 10SM CLR 12/08 A3024 RMK AO1

More Conditions Fewer Conditions

10-Day Weather Forecast

Almanac

Astronomy

Nov. 22, 2014 Rise Set
Actual Time
Civil Twilight
Nautical Twilight
Astronomical Twilight
Moon
Length of Visible Light
Length of Day
Tomorrow will be .
, % of the Moon is Illuminated

Today's Extremes

State Highs State Lows

Community

WunderPhotos

Upload Photos

1,773,003 photos uploaded!

WunderBlogs® & News

Nearby

Air Quality

  Air Quality AQ Index Pollutant
Not available.

Snow Depth

Station Depth Elevation

Earthquake Activity

City Distance Mag. Time & Date
Minimum magnitude displayed is 2.5.

Coastal Water Temperatures

Place Temperature

Nearby Weather Stations